Time;durP1;ratioP1;P1;durP2;ratioP2;P2;SDS_P1;SDS_P2;PMS_P1;PMS_P2;Temp;Humidity;BMP_temperature;BMP_pressure;BME280_temperature;BME280_humidity;BME280_pressure;Samples;Min_cycle;Max_cycle;Signal;HPM_P1;HPM_P2
2021/01/06 00:01:56;;;;;;;3.72;3.10;;;10.80;99.90;;;;;;4950767;29;20215;-29
2021/01/06 00:04:26;;;;;;;4.82;2.72;;;10.80;99.90;;;;;;4949311;28;20208;-28
2021/01/06 00:06:56;;;;;;;4.72;2.95;;;10.60;99.90;;;;;;4941848;29;20219;-31
2021/01/06 00:09:26;;;;;;;3.83;2.53;;;10.50;99.90;;;;;;4943789;29;20211;-28
2021/01/06 00:11:56;;;;;;;4.85;2.63;;;10.50;99.90;;;;;;4951607;29;20219;-31
2021/01/06 00:14:26;;;;;;;3.92;2.58;;;10.40;99.90;;;;;;4953652;29;20207;-28
2021/01/06 00:16:58;;;;;;;3.65;2.45;;;10.40;99.90;;;;;;4953797;29;20223;-29
2021/01/06 00:19:28;;;;;;;4.30;3.00;;;10.50;99.90;;;;;;4953340;29;20210;-28
2021/01/06 00:21:58;;;;;;;3.05;2.55;;;10.50;99.90;;;;;;4953424;29;20199;-28
2021/01/06 00:24:28;;;;;;;5.68;3.25;;;10.30;99.90;;;;;;4948408;29;20213;-28
2021/01/06 00:26:58;;;;;;;3.92;3.40;;;10.20;99.90;;;;;;4949810;29;20248;-28
2021/01/06 00:29:28;;;;;;;5.03;4.00;;;10.30;99.90;;;;;;4952441;29;20211;-28
2021/01/06 00:31:59;;;;;;;5.25;4.03;;;10.30;99.90;;;;;;4953900;29;20578;-28
2021/01/06 00:34:29;;;;;;;23.47;6.00;;;10.20;99.90;;;;;;4953565;29;20214;-29
2021/01/06 00:36:59;;;;;;;27.60;6.25;;;10.20;99.90;;;;;;4953568;29;20459;-28
2021/01/06 00:39:30;;;;;;;17.50;5.53;;;10.30;99.90;;;;;;4953244;29;20221;-28
2021/01/06 00:42:00;;;;;;;9.55;4.82;;;10.10;99.90;;;;;;4952415;29;20643;-28
2021/01/06 00:44:30;;;;;;;6.47;3.97;;;10.10;99.90;;;;;;4942791;29;20210;-29
2021/01/06 00:47:01;;;;;;;5.72;3.85;;;10.20;99.90;;;;;;4952519;29;20237;-28
2021/01/06 00:49:31;;;;;;;6.53;4.03;;;10.30;99.90;;;;;;4952655;29;20270;-29
2021/01/06 00:52:01;;;;;;;5.72;3.72;;;10.40;99.90;;;;;;4952252;29;20238;-28
2021/01/06 00:54:34;;;;;;;4.28;3.10;;;10.20;99.90;;;;;;4953111;29;20195;-28
2021/01/06 00:57:04;;;;;;;4.82;3.65;;;10.00;99.90;;;;;;4952976;29;20326;-28
2021/01/06 00:59:34;;;;;;;5.97;3.55;;;10.00;99.90;;;;;;4953159;29;20206;-28
2021/01/06 01:02:06;;;;;;;5.35;4.82;;;10.00;99.90;;;;;;4953497;29;20319;-28
2021/01/06 01:04:36;;;;;;;5.65;5.00;;;10.00;99.90;;;;;;4953079;29;20198;-28
2021/01/06 01:07:06;;;;;;;5.85;4.47;;;10.00;99.90;;;;;;4953033;29;20239;-28
2021/01/06 01:09:36;;;;;;;4.78;4.38;;;10.00;99.90;;;;;;4944259;29;20198;-28
2021/01/06 01:12:07;;;;;;;4.55;4.15;;;10.00;99.90;;;;;;4952521;29;20297;-28
2021/01/06 01:14:37;;;;;;;5.40;4.90;;;10.00;99.90;;;;;;4945483;29;20194;-28
2021/01/06 01:17:09;;;;;;;4.03;3.30;;;10.10;99.90;;;;;;4952865;28;20608;-28
2021/01/06 01:19:39;;;;;;;3.53;3.13;;;10.10;99.90;;;;;;4953484;29;20554;-28
2021/01/06 01:22:09;;;;;;;4.28;3.15;;;10.00;99.90;;;;;;4951522;29;20214;-28
2021/01/06 01:24:40;;;;;;;3.75;3.45;;;10.10;99.90;;;;;;4934131;29;20273;-28
2021/01/06 01:27:10;;;;;;;2.88;2.63;;;10.10;99.90;;;;;;4951150;29;20238;-32
2021/01/06 01:29:40;;;;;;;3.50;3.20;;;10.20;99.90;;;;;;4952768;29;20215;-28
2021/01/06 01:32:11;;;;;;;2.90;2.67;;;10.20;99.90;;;;;;4952835;29;20220;-28
2021/01/06 01:34:41;;;;;;;3.20;2.85;;;10.20;99.90;;;;;;4951929;29;20186;-28
2021/01/06 01:37:11;;;;;;;3.10;2.90;;;10.10;99.90;;;;;;4952181;29;20202;-28
2021/01/06 01:39:41;;;;;;;3.50;2.60;;;10.10;99.90;;;;;;4951565;29;20202;-29
2021/01/06 01:42:11;;;;;;;3.95;2.88;;;10.20;99.90;;;;;;4949639;29;20693;-29
2021/01/06 01:45:01;;;;;;;2.72;2.53;;;10.20;99.90;;;;;;4949246;29;20218;-28
2021/01/06 01:47:41;;;;;;;2.90;2.42;;;10.10;99.90;;;;;;4951674;29;20228;-29
2021/01/06 01:50:11;;;;;;;2.80;2.40;;;10.10;99.90;;;;;;4949864;29;20186;-28
2021/01/06 01:52:49;;;;;;;3.17;2.60;;;10.10;99.90;;;;;;4951229;29;20333;-28
2021/01/06 01:55:21;;;;;;;3.05;2.75;;;10.10;99.90;;;;;;4949313;29;20196;-29
2021/01/06 01:57:56;;;;;;;3.90;3.08;;;10.10;99.90;;;;;;4950960;29;20201;-30
2021/01/06 02:00:28;;;;;;;2.88;2.60;;;10.10;99.90;;;;;;4950816;29;20189;-28
2021/01/06 02:03:16;;;;;;;3.00;2.80;;;10.10;99.90;;;;;;4951367;29;20222;-28
2021/01/06 02:05:51;;;;;;;3.60;3.30;;;10.00;99.90;;;;;;4949317;29;20196;-28
2021/01/06 02:08:26;;;;;;;4.57;2.95;;;10.00;99.90;;;;;;4950688;29;20210;-28
2021/01/06 02:10:58;;;;;;;3.33;2.90;;;10.00;99.90;;;;;;4951866;29;20284;-29
2021/01/06 02:13:34;;;;;;;3.20;2.67;;;10.00;99.90;;;;;;4941393;29;20201;-28
2021/01/06 02:16:11;;;;;;;4.53;2.58;;;10.00;99.90;;;;;;4951540;29;20199;-28
2021/01/06 02:18:42;;;;;;;3.80;3.17;;;10.00;99.90;;;;;;4951099;29;20198;-28
2021/01/06 02:21:16;;;;;;;3.20;2.90;;;10.00;99.90;;;;;;4948957;29;20203;-29
2021/01/06 02:23:49;;;;;;;3.17;2.88;;;10.10;99.90;;;;;;4951364;29;20186;-28
2021/01/06 02:26:20;;;;;;;3.17;2.60;;;10.10;99.90;;;;;;4949309;29;20286;-28
2021/01/06 02:28:50;;;;;;;3.05;2.70;;;10.20;99.90;;;;;;4951732;28;20213;-29
2021/01/06 02:31:21;;;;;;;2.90;2.58;;;10.20;99.90;;;;;;4951141;29;20661;-28
2021/01/06 02:33:52;;;;;;;2.88;2.65;;;10.20;99.90;;;;;;4951607;29;20898;-28
2021/01/06 02:36:24;;;;;;;5.13;2.25;;;10.30;99.90;;;;;;4951018;29;20186;-28
2021/01/06 02:38:55;;;;;;;7.20;6.60;;;10.20;99.90;;;;;;4948638;29;20268;-29
2021/01/06 02:41:25;;;;;;;2.55;2.25;;;10.10;99.90;;;;;;4951637;29;20209;-28
2021/01/06 02:43:55;;;;;;;6.43;5.53;;;10.10;99.90;;;;;;4951239;29;20626;-28
2021/01/06 02:46:25;;;;;;;5.60;4.65;;;10.00;99.90;;;;;;4950351;29;20296;-29
2021/01/06 02:48:55;;;;;;;3.63;3.00;;;10.00;99.90;;;;;;4950644;29;20204;-28
2021/01/06 02:51:39;;;;;;;2.85;2.58;;;10.00;99.90;;;;;;4951021;29;20585;-28
2021/01/06 02:54:11;;;;;;;3.25;2.67;;;10.00;99.90;;;;;;4906138;29;20564;-28
2021/01/06 02:56:43;;;;;;;3.30;2.70;;;10.00;99.90;;;;;;4902054;29;20254;-28
2021/01/06 02:59:15;;;;;;;2.63;2.28;;;10.10;99.90;;;;;;4901416;29;20255;-28
2021/01/06 03:01:48;;;;;;;4.68;2.20;;;10.10;99.90;;;;;;4901284;29;20199;-28
2021/01/06 03:04:21;;;;;;;3.47;2.35;;;10.10;99.90;;;;;;4903581;29;20255;-28
2021/01/06 03:06:56;;;;;;;2.60;2.40;;;10.10;99.90;;;;;;4905046;29;20215;-28
2021/01/06 03:09:31;;;;;;;2.58;2.38;;;10.10;99.90;;;;;;4910935;29;20197;-29
2021/01/06 03:12:05;;;;;;;4.45;2.67;;;10.10;99.90;;;;;;4912288;29;20203;-29
2021/01/06 03:14:37;;;;;;;3.80;3.20;;;10.10;99.90;;;;;;4913085;29;20578;-28
2021/01/06 03:17:09;;;;;;;3.75;3.38;;;10.10;99.90;;;;;;4901284;29;20264;-28
2021/01/06 03:19:43;;;;;;;6.32;3.85;;;10.00;99.90;;;;;;4895532;29;20568;-28
2021/01/06 03:22:17;;;;;;;4.65;3.97;;;10.10;99.90;;;;;;4896472;29;20911;-28
2021/01/06 03:24:51;;;;;;;3.72;2.85;;;10.00;99.90;;;;;;4901359;29;20191;-28
2021/01/06 03:27:24;;;;;;;4.88;3.35;;;9.70;99.90;;;;;;4901825;29;20759;-28
2021/01/06 03:29:54;;;;;;;2.92;2.72;;;9.80;99.90;;;;;;4901597;29;20196;-28
2021/01/06 03:32:31;;;;;;;3.33;3.03;;;9.90;99.90;;;;;;4903550;29;20196;-28
2021/01/06 03:35:08;;;;;;;3.85;3.00;;;10.00;99.90;;;;;;4913210;29;20200;-29
2021/01/06 03:37:46;;;;;;;2.85;2.65;;;9.90;99.90;;;;;;4913866;29;20194;-28
2021/01/06 03:40:22;;;;;;;5.25;3.15;;;9.90;99.90;;;;;;4913975;29;20646;-28
2021/01/06 03:42:54;;;;;;;3.60;2.80;;;9.90;99.90;;;;;;4912153;29;20191;-28
2021/01/06 03:45:28;;;;;;;4.32;4.03;;;9.80;99.90;;;;;;4904968;29;20196;-28
2021/01/06 03:48:03;;;;;;;2.58;2.22;;;9.80;99.90;;;;;;4909959;29;20628;-28
2021/01/06 03:50:38;;;;;;;4.82;4.45;;;9.80;99.90;;;;;;4912648;29;20205;-29
2021/01/06 03:53:21;;;;;;;4.82;3.58;;;9.90;99.90;;;;;;4940249;29;20313;-28
2021/01/06 03:55:55;;;;;;;4.60;4.07;;;9.90;99.90;;;;;;4955027;29;20759;-28
2021/01/06 03:58:39;;;;;;;4.00;3.70;;;9.80;99.90;;;;;;4954954;29;20253;-28
2021/01/06 04:01:41;;;;;;;3.72;3.42;;;9.70;99.90;;;;;;4953620;29;20264;-29
2021/01/06 04:04:19;;;;;;;3.63;3.33;;;9.80;99.90;;;;;;4942761;29;20233;-28
2021/01/06 04:06:52;;;;;;;3.45;3.15;;;9.80;99.90;;;;;;4951886;29;20347;-28
2021/01/06 04:09:32;;;;;;;4.47;3.38;;;9.70;99.90;;;;;;4954606;29;20189;-29
2021/01/06 04:12:11;;;;;;;8.75;3.55;;;9.60;99.90;;;;;;4954392;29;20198;-28
2021/01/06 04:14:41;;;;;;;3.20;2.90;;;9.70;99.90;;;;;;4938024;29;20694;-29
2021/01/06 04:17:25;;;;;;;3.13;2.83;;;9.70;99.90;;;;;;4953762;29;20254;-27
2021/01/06 04:19:57;;;;;;;3.47;3.08;;;9.60;99.90;;;;;;4951950;29;20592;-28
2021/01/06 04:22:43;;;;;;;3.88;3.00;;;9.70;99.90;;;;;;4952511;29;20215;-28
2021/01/06 04:25:23;;;;;;;4.32;3.03;;;9.70;99.90;;;;;;4950936;29;20498;-27
2021/01/06 04:27:56;;;;;;;6.40;5.80;;;9.60;99.90;;;;;;4952938;29;20220;-28
2021/01/06 04:30:31;;;;;;;5.82;5.32;;;9.70;99.90;;;;;;4948849;29;20198;-28
2021/01/06 04:33:03;;;;;;;9.30;7.55;;;9.70;99.90;;;;;;4951285;29;20256;-28
2021/01/06 04:35:34;;;;;;;8.18;7.38;;;9.60;99.90;;;;;;4935037;29;20202;-28
2021/01/06 04:38:05;;;;;;;8.05;7.05;;;9.60;99.90;;;;;;4951969;29;20213;-28
2021/01/06 04:40:40;;;;;;;8.25;7.53;;;9.50;99.90;;;;;;4952769;29;20207;-28
2021/01/06 04:43:18;;;;;;;7.57;6.80;;;9.50;99.90;;;;;;4952299;29;20210;-28
2021/01/06 04:45:58;;;;;;;5.80;5.30;;;9.50;99.90;;;;;;4948489;29;20204;-28
2021/01/06 04:49:06;;;;;;;4.47;4.05;;;9.50;99.90;;;;;;4952561;29;20213;-28
2021/01/06 04:51:53;;;;;;;5.40;4.10;;;9.50;99.90;;;;;;4950635;28;20611;-28
2021/01/06 04:54:50;;;;;;;4.32;3.90;;;9.50;99.90;;;;;;4952270;29;20677;-29
2021/01/06 04:57:44;;;;;;;4.65;4.25;;;9.40;99.90;;;;;;4946611;29;20210;-29
2021/01/06 05:00:32;;;;;;;4.85;4.18;;;9.60;99.90;;;;;;4951297;29;20219;-29
2021/01/06 05:03:24;;;;;;;4.60;4.20;;;9.60;99.90;;;;;;4951231;29;20227;-29
2021/01/06 05:06:17;;;;;;;8.95;7.97;;;9.70;99.90;;;;;;4953298;29;20607;-28
2021/01/06 05:08:50;;;;;;;14.40;12.82;;;9.80;99.90;;;;;;4952505;29;20201;-28
2021/01/06 05:11:28;;;;;;;8.45;7.65;;;9.70;99.90;;;;;;4952412;29;20194;-29
2021/01/06 05:14:03;;;;;;;9.27;8.38;;;9.70;99.90;;;;;;4951689;29;20189;-29
2021/01/06 05:16:38;;;;;;;29.05;25.33;;;9.70;99.90;;;;;;4952024;29;20297;-27
2021/01/06 05:19:15;;;;;;;6.47;5.88;;;9.60;99.90;;;;;;4952472;29;20300;-28
2021/01/06 05:21:46;;;;;;;9.00;6.97;;;9.60;99.90;;;;;;4952065;29;20189;-28
2021/01/06 05:24:25;;;;;;;7.43;6.75;;;9.40;99.90;;;;;;4946747;29;20208;-28
2021/01/06 05:27:15;;;;;;;6.57;5.88;;;9.30;99.90;;;;;;4946858;29;20228;-28
2021/01/06 05:29:49;;;;;;;6.53;5.93;;;9.30;99.90;;;;;;4937024;29;20695;-27
2021/01/06 05:32:21;;;;;;;8.13;7.20;;;9.30;99.90;;;;;;4943480;29;20205;-27
2021/01/06 05:34:53;;;;;;;8.82;8.00;;;9.30;99.90;;;;;;4941281;29;20664;-28
2021/01/06 05:37:25;;;;;;;6.95;6.25;;;9.40;99.90;;;;;;4948704;29;20201;-27
2021/01/06 05:40:00;;;;;;;4.30;3.90;;;9.40;99.90;;;;;;4950048;29;20193;-28
2021/01/06 05:42:35;;;;;;;7.07;6.38;;;9.40;99.90;;;;;;4948082;29;20201;-27
2021/01/06 05:45:08;;;;;;;3.50;3.30;;;9.50;99.90;;;;;;4951730;29;20616;-27
2021/01/06 05:47:41;;;;;;;6.90;4.30;;;9.50;99.90;;;;;;4952719;29;20833;-27
2021/01/06 05:50:17;;;;;;;4.05;3.75;;;9.50;99.90;;;;;;4952161;29;20551;-27
2021/01/06 05:52:57;;;;;;;4.15;3.85;;;9.50;99.90;;;;;;4952257;29;20244;-27
2021/01/06 05:55:30;;;;;;;4.85;4.38;;;9.60;99.90;;;;;;4949818;29;20536;-27
2021/01/06 05:58:10;;;;;;;6.03;3.65;;;9.50;99.90;;;;;;4950941;29;20231;-27
2021/01/06 06:00:51;;;;;;;4.72;4.35;;;9.60;99.90;;;;;;4947466;29;20565;-28
2021/01/06 06:03:57;;;;;;;7.70;6.90;;;9.60;99.90;;;;;;4948985;28;20212;-28
2021/01/06 06:06:46;;;;;;;3.92;2.92;;;9.60;99.90;;;;;;4933415;29;20279;-27
2021/01/06 06:09:30;;;;;;;5.45;3.00;;;9.70;99.90;;;;;;4946057;29;20543;-28
2021/01/06 06:12:27;;;;;;;8.13;6.10;;;9.60;99.90;;;;;;4950651;29;20205;-28
2021/01/06 06:15:25;;;;;;;4.80;4.40;;;9.60;99.90;;;;;;4948336;29;20745;-28
2021/01/06 06:18:44;;;;;;;14.68;13.18;;;9.70;99.90;;;;;;4948911;29;20212;-28
2021/01/06 06:21:34;;;;;;;20.80;18.67;;;9.80;99.90;;;;;;4947317;29;20214;-28
2021/01/06 06:24:35;;;;;;;4.35;4.00;;;9.70;99.90;;;;;;4945348;29;20201;-29
2021/01/06 06:27:24;;;;;;;6.07;4.15;;;9.70;99.90;;;;;;4944049;29;20666;-27
2021/01/06 06:30:07;;;;;;;3.00;2.78;;;9.80;99.90;;;;;;4940409;29;20327;-27
2021/01/06 06:32:37;;;;;;;3.60;2.70;;;9.80;99.90;;;;;;4951651;29;20592;-27
2021/01/06 06:35:20;;;;;;;3.00;2.70;;;9.70;99.90;;;;;;4950265;29;20267;-27
2021/01/06 06:37:55;;;;;;;4.93;2.67;;;9.80;99.90;;;;;;4949047;29;20236;-27
2021/01/06 06:40:26;;;;;;;3.03;2.75;;;9.80;99.90;;;;;;4950336;29;20292;-27
2021/01/06 06:43:00;;;;;;;5.47;2.78;;;9.70;99.90;;;;;;4949095;29;20198;-28
2021/01/06 06:45:57;;;;;;;3.65;3.22;;;9.60;99.90;;;;;;4950330;29;20572;-28
2021/01/06 06:48:39;;;;;;;4.47;4.05;;;9.60;99.90;;;;;;4949025;29;20234;-27
2021/01/06 06:51:19;;;;;;;5.13;4.63;;;9.70;99.90;;;;;;4945220;29;20681;-27
2021/01/06 06:53:56;;;;;;;7.05;4.95;;;9.70;99.90;;;;;;4941419;29;20234;-27
2021/01/06 06:56:35;;;;;;;6.10;4.60;;;9.60;99.90;;;;;;4939113;29;20198;-28
2021/01/06 06:59:11;;;;;;;6.78;6.15;;;9.60;99.90;;;;;;4947234;29;20198;-28
2021/01/06 07:01:44;;;;;;;7.18;6.45;;;9.60;99.90;;;;;;4950821;29;20197;-28
2021/01/06 07:04:24;;;;;;;5.93;5.38;;;9.60;99.90;;;;;;4951267;29;20221;-29
2021/01/06 07:06:57;;;;;;;6.80;6.10;;;9.60;99.90;;;;;;4950780;29;20224;-27
2021/01/06 07:09:31;;;;;;;8.07;7.35;;;9.50;99.90;;;;;;4943467;29;20264;-27
2021/01/06 07:12:04;;;;;;;6.78;6.15;;;9.50;99.90;;;;;;4950234;29;20595;-28
2021/01/06 07:14:38;;;;;;;7.72;5.80;;;9.60;99.90;;;;;;4949639;28;20312;-29
2021/01/06 07:17:14;;;;;;;6.15;5.55;;;9.40;99.90;;;;;;4952962;29;20657;-28
2021/01/06 07:19:58;;;;;;;7.20;6.50;;;9.30;99.90;;;;;;4954956;29;20645;-28
2021/01/06 07:22:38;;;;;;;5.88;5.38;;;9.40;99.90;;;;;;4950340;29;20213;-28
2021/01/06 07:25:23;;;;;;;7.35;6.10;;;9.20;99.90;;;;;;4947916;29;20213;-28
2021/01/06 07:27:56;;;;;;;6.63;6.03;;;9.20;99.90;;;;;;4942986;29;20217;-28
2021/01/06 07:30:31;;;;;;;8.10;6.10;;;9.00;99.90;;;;;;4953056;29;20266;-28
2021/01/06 07:33:12;;;;;;;3.30;3.00;;;9.10;99.90;;;;;;4953921;29;20209;-28
2021/01/06 07:35:44;;;;;;;4.50;3.15;;;9.10;99.90;;;;;;4954224;29;20304;-28
2021/01/06 07:38:18;;;;;;;3.88;2.83;;;9.30;99.90;;;;;;4952407;29;20201;-28
2021/01/06 07:40:56;;;;;;;3.50;3.20;;;9.40;99.90;;;;;;4951710;29;20289;-28
2021/01/06 07:43:28;;;;;;;4.65;3.47;;;9.50;99.90;;;;;;4948675;29;20295;-28
2021/01/06 07:46:21;;;;;;;3.40;3.10;;;9.50;99.90;;;;;;4935228;29;20801;-28
2021/01/06 07:49:01;;;;;;;3.42;3.20;;;9.70;99.90;;;;;;4953215;29;20598;-27
2021/01/06 07:51:40;;;;;;;3.70;3.40;;;9.90;99.90;;;;;;4953815;29;20221;-27
2021/01/06 07:54:23;;;;;;;3.38;3.08;;;10.10;99.90;;;;;;4954420;29;20610;-27
2021/01/06 07:57:05;;;;;;;4.63;4.22;;;10.20;99.90;;;;;;4954033;29;20228;-28
2021/01/06 07:59:49;;;;;;;4.28;3.90;;;10.40;99.90;;;;;;4941450;29;20340;-27
2021/01/06 08:02:30;;;;;;;4.40;4.00;;;10.50;99.90;;;;;;4952850;29;20197;-28
2021/01/06 08:05:32;;;;;;;6.47;4.68;;;10.50;99.90;;;;;;4952978;29;20198;-28
2021/01/06 08:08:13;;;;;;;4.40;3.97;;;10.50;99.90;;;;;;4951733;29;20557;-29
2021/01/06 08:10:47;;;;;;;4.68;4.10;;;10.40;99.90;;;;;;4953304;29;20630;-28
2021/01/06 08:13:26;;;;;;;4.72;4.32;;;10.40;99.90;;;;;;4953063;29;20194;-27
2021/01/06 08:16:11;;;;;;;4.10;3.70;;;10.30;99.90;;;;;;4952374;29;20953;-28
2021/01/06 08:18:59;;;;;;;4.50;4.10;;;10.20;99.90;;;;;;4950915;29;20207;-28
2021/01/06 08:21:33;;;;;;;5.32;4.00;;;10.20;99.90;;;;;;4948710;29;20198;-28
2021/01/06 08:24:16;;;;;;;5.07;4.40;;;10.20;99.90;;;;;;4952987;29;20309;-28
2021/01/06 08:26:52;;;;;;;4.93;3.45;;;10.30;99.90;;;;;;4951306;28;20193;-28
2021/01/06 08:29:25;;;;;;;1.70;1.60;;;10.20;99.90;;;;;;4952910;29;20206;-28
2021/01/06 08:31:58;;;;;;;2.10;1.60;;;10.40;99.90;;;;;;4953977;29;20265;-28
2021/01/06 08:34:31;;;;;;;1.23;0.80;;;10.60;99.90;;;;;;4953674;29;20294;-28
2021/01/06 08:37:06;;;;;;;2.25;1.00;;;10.80;99.90;;;;;;4952572;29;20661;-27
2021/01/06 08:39:38;;;;;;;2.15;0.95;;;10.90;99.90;;;;;;4951241;29;20672;-27
2021/01/06 08:42:18;;;;;;;3.50;1.10;;;10.90;99.90;;;;;;4952784;29;20221;-27
2021/01/06 08:44:56;;;;;;;0.70;0.70;;;11.00;99.90;;;;;;4951142;29;20195;-27
2021/01/06 08:47:33;;;;;;;1.55;0.70;;;11.00;99.90;;;;;;4952579;29;20217;-27
2021/01/06 08:50:24;;;;;;;1.50;0.90;;;11.10;99.90;;;;;;4952233;29;20275;-28
2021/01/06 08:52:56;;;;;;;0.93;0.70;;;11.00;99.90;;;;;;4950135;29;20228;-28
2021/01/06 08:55:29;;;;;;;1.10;0.70;;;11.00;99.90;;;;;;4952138;29;20257;-28
2021/01/06 08:58:02;;;;;;;1.27;0.93;;;11.00;99.90;;;;;;4950928;29;20635;-28
2021/01/06 09:00:36;;;;;;;2.65;0.82;;;10.90;99.90;;;;;;4949949;29;20210;-28
2021/01/06 09:03:21;;;;;;;1.88;0.95;;;10.90;99.90;;;;;;4952376;29;20199;-28
2021/01/06 09:06:03;;;;;;;1.05;0.80;;;10.70;99.90;;;;;;4943814;29;20209;-28
2021/01/06 09:08:41;;;;;;;3.28;1.00;;;10.70;99.90;;;;;;4952943;29;20222;-28
2021/01/06 09:11:23;;;;;;;2.20;1.23;;;10.50;99.90;;;;;;4937583;29;20213;-28
2021/01/06 09:14:00;;;;;;;2.83;1.15;;;10.40;99.90;;;;;;4952603;29;20666;-28
2021/01/06 09:16:39;;;;;;;3.60;1.52;;;10.20;99.90;;;;;;4947908;29;20621;-29
2021/01/06 09:19:15;;;;;;;6.07;2.25;;;10.20;99.90;;;;;;4952193;29;20278;-29
2021/01/06 09:21:46;;;;;;;2.67;1.17;;;10.10;99.90;;;;;;4951856;29;20189;-31
2021/01/06 09:24:20;;;;;;;7.13;2.63;;;10.00;99.90;;;;;;4951191;29;20367;-26
2021/01/06 09:26:54;;;;;;;1.13;0.80;;;10.00;99.90;;;;;;4951967;29;20198;-27
2021/01/06 09:29:28;;;;;;;8.05;1.63;;;10.00;99.90;;;;;;4948352;29;20225;-27
2021/01/06 09:32:05;;;;;;;3.00;1.40;;;9.90;99.90;;;;;;4949772;29;20248;-27
2021/01/06 09:34:40;;;;;;;4.32;1.00;;;10.00;99.90;;;;;;4951082;29;20193;-27
2021/01/06 09:37:17;;;;;;;1.58;1.00;;;10.00;99.90;;;;;;4949455;28;20341;-27
2021/01/06 09:39:48;;;;;;;2.03;0.75;;;10.00;99.90;;;;;;4950537;29;20256;-27
2021/01/06 09:42:18;;;;;;;2.90;0.93;;;10.00;99.90;;;;;;4949566;29;20236;-27
2021/01/06 09:44:50;;;;;;;2.20;0.95;;;9.90;99.90;;;;;;4948842;29;20205;-28
2021/01/06 09:47:27;;;;;;;1.90;1.30;;;9.80;99.90;;;;;;4951170;29;20201;-27
2021/01/06 09:50:00;;;;;;;2.90;1.33;;;9.80;99.90;;;;;;4950847;29;20791;-27
2021/01/06 09:52:33;;;;;;;2.70;1.23;;;9.90;99.90;;;;;;4949242;29;20237;-27
2021/01/06 09:55:04;;;;;;;2.70;0.98;;;9.80;99.90;;;;;;4949820;29;20202;-27
2021/01/06 09:57:35;;;;;;;2.53;1.42;;;9.80;99.90;;;;;;4949123;29;20263;-27
2021/01/06 10:00:11;;;;;;;2.22;1.02;;;9.90;99.90;;;;;;4950638;29;20284;-27
2021/01/06 10:02:50;;;;;;;3.83;1.20;;;10.00;99.90;;;;;;4949215;29;20197;-27
2021/01/06 10:05:35;;;;;;;1.10;0.70;;;10.00;99.90;;;;;;4950841;29;20249;-27
2021/01/06 10:08:20;;;;;;;2.33;1.00;;;10.10;99.90;;;;;;4951104;29;20342;-27
2021/01/06 10:10:55;;;;;;;7.47;1.25;;;10.10;99.90;;;;;;4948528;29;20735;-27
2021/01/06 10:13:34;;;;;;;2.20;0.60;;;10.00;99.90;;;;;;4950722;29;20248;-27
2021/01/06 10:16:10;;;;;;;3.53;1.67;;;10.10;99.90;;;;;;4946912;29;20209;-26
2021/01/06 10:18:51;;;;;;;4.40;1.10;;;10.10;99.90;;;;;;4950925;29;20275;-27
2021/01/06 10:21:32;;;;;;;2.72;1.10;;;10.20;99.90;;;;;;4941625;29;20528;-28
2021/01/06 10:24:31;;;;;;;4.65;1.20;;;10.20;99.90;;;;;;4948245;29;20205;-28
2021/01/06 10:27:15;;;;;;;3.10;1.30;;;10.10;99.90;;;;;;4948621;29;20205;-28
2021/01/06 10:29:49;;;;;;;2.22;0.95;;;10.10;99.90;;;;;;4950859;29;20276;-28
2021/01/06 10:32:49;;;;;;;1.10;1.00;;;10.10;99.90;;;;;;4950547;29;20566;-28
2021/01/06 10:35:31;;;;;;;4.72;1.02;;;10.10;99.90;;;;;;4948625;29;20197;-28
2021/01/06 10:38:26;;;;;;;1.52;1.25;;;10.00;99.90;;;;;;4949788;29;20276;-28
2021/01/06 10:41:12;;;;;;;6.25;2.35;;;10.00;99.90;;;;;;4949886;29;20194;-29
2021/01/06 10:43:46;;;;;;;3.92;1.45;;;10.00;99.90;;;;;;4951275;29;20245;-28
2021/01/06 10:46:48;;;;;;;2.53;1.40;;;9.90;99.90;;;;;;4950985;29;20195;-27
2021/01/06 10:49:56;;;;;;;9.27;1.63;;;9.80;99.90;;;;;;4950788;29;20232;-28
2021/01/06 10:52:38;;;;;;;3.38;1.15;;;9.70;99.90;;;;;;4950263;29;20661;-27
2021/01/06 10:55:40;;;;;;;5.03;1.33;;;9.60;99.90;;;;;;4949429;29;20624;-28
2021/01/06 10:58:29;;;;;;;5.15;1.45;;;9.60;99.90;;;;;;4947202;29;20664;-28
2021/01/06 11:01:33;;;;;;;4.00;1.20;;;9.70;99.90;;;;;;4949801;29;20193;-28
2021/01/06 11:04:22;;;;;;;3.63;1.50;;;9.70;99.90;;;;;;4948189;29;20251;-28
2021/01/06 11:07:01;;;;;;;3.15;0.95;;;9.70;99.90;;;;;;4949604;29;20197;-28
2021/01/06 11:09:48;;;;;;;6.03;1.00;;;9.70;99.90;;;;;;4948839;29;20709;-28
2021/01/06 11:12:50;;;;;;;2.38;1.33;;;9.70;99.90;;;;;;4949012;29;20681;-28
2021/01/06 11:15:32;;;;;;;3.55;1.20;;;9.70;99.90;;;;;;4950683;29;20255;-29
2021/01/06 11:18:32;;;;;;;2.30;1.20;;;9.70;99.90;;;;;;4945628;29;20196;-28
2021/01/06 11:21:14;;;;;;;4.32;1.15;;;9.70;99.90;;;;;;4951282;29;20197;-28
2021/01/06 11:23:57;;;;;;;3.67;1.10;;;9.70;99.90;;;;;;4949361;29;20205;-27
2021/01/06 11:26:48;;;;;;;1.60;1.48;;;9.70;99.90;;;;;;4950369;29;20608;-27
2021/01/06 11:29:39;;;;;;;1.98;1.75;;;9.80;99.90;;;;;;4947816;29;20226;-27
2021/01/06 11:32:35;;;;;;;3.33;1.30;;;9.60;99.90;;;;;;4948935;29;20230;-27
2021/01/06 11:35:24;;;;;;;3.97;1.50;;;9.60;99.90;;;;;;4949404;29;20518;-27
2021/01/06 11:37:55;;;;;;;6.28;1.10;;;9.60;99.90;;;;;;4951255;29;20287;-28
2021/01/06 11:40:49;;;;;;;1.85;1.25;;;9.60;99.90;;;;;;4951212;29;20622;-29
2021/01/06 11:43:52;;;;;;;1.80;0.90;;;9.60;99.90;;;;;;4937628;29;20237;-28
2021/01/06 11:46:43;;;;;;;1.67;0.80;;;9.60;99.90;;;;;;4948085;29;20197;-28
2021/01/06 11:49:30;;;;;;;2.78;1.17;;;9.60;99.90;;;;;;4948929;29;20213;-28
2021/01/06 11:52:47;;;;;;;3.33;1.10;;;9.70;99.90;;;;;;4950843;29;20249;-28
2021/01/06 11:55:37;;;;;;;1.60;1.10;;;9.70;99.90;;;;;;4936642;29;20297;-28
2021/01/06 11:58:31;;;;;;;2.22;1.10;;;9.70;99.90;;;;;;4950497;29;20253;-28
2021/01/06 12:01:31;;;;;;;5.53;1.80;;;9.60;99.90;;;;;;4949281;28;20343;-28
2021/01/06 12:04:21;;;;;;;1.60;0.95;;;9.60;99.90;;;;;;4953483;29;20201;-28
2021/01/06 12:07:09;;;;;;;3.17;1.55;;;9.50;99.90;;;;;;4951355;29;20594;-28
2021/01/06 12:09:51;;;;;;;1.25;1.00;;;9.50;99.90;;;;;;4954411;29;20229;-27
2021/01/06 12:12:41;;;;;;;1.65;1.00;;;9.50;99.90;;;;;;4954272;29;20205;-27
2021/01/06 12:15:34;;;;;;;0.80;0.80;;;9.40;99.90;;;;;;4953243;29;20244;-26
2021/01/06 12:18:14;;;;;;;2.65;1.10;;;9.30;99.90;;;;;;4953348;29;20228;-27
2021/01/06 12:20:48;;;;;;;1.58;0.90;;;9.30;99.90;;;;;;4953271;29;20189;-27
2021/01/06 12:23:36;;;;;;;2.80;1.23;;;9.30;99.90;;;;;;4951269;29;20204;-26
2021/01/06 12:26:22;;;;;;;0.95;0.88;;;9.30;99.90;;;;;;4953637;29;20264;-29
2021/01/06 12:28:58;;;;;;;1.75;0.90;;;9.20;99.90;;;;;;4953807;29;20217;-27
2021/01/06 12:31:42;;;;;;;1.92;1.00;;;9.10;99.90;;;;;;4953197;29;20189;-27
2021/01/06 12:34:18;;;;;;;1.35;1.20;;;9.10;99.90;;;;;;4953562;29;20750;-26
2021/01/06 12:37:22;;;;;;;2.22;1.15;;;9.00;99.90;;;;;;4952755;29;20189;-26
2021/01/06 12:40:19;;;;;;;3.08;0.90;;;9.00;99.90;;;;;;4950870;29;20210;-26
2021/01/06 12:42:57;;;;;;;2.30;0.93;;;9.00;99.90;;;;;;4953933;29;20205;-26
2021/01/06 12:45:31;;;;;;;4.30;1.25;;;9.00;99.90;;;;;;4953198;29;20198;-26
2021/01/06 12:48:10;;;;;;;5.30;1.15;;;8.90;99.90;;;;;;4953594;29;20216;-26
2021/01/06 12:50:51;;;;;;;1.17;1.02;;;8.90;99.90;;;;;;4953195;29;20213;-26
2021/01/06 12:53:25;;;;;;;2.67;0.80;;;8.90;99.90;;;;;;4952553;29;20237;-26
2021/01/06 12:56:09;;;;;;;1.00;0.90;;;8.90;99.90;;;;;;4949954;29;20209;-27
2021/01/06 12:58:41;;;;;;;1.40;1.00;;;8.80;99.90;;;;;;4953550;29;20264;-26
2021/01/06 13:01:20;;;;;;;1.10;0.95;;;8.80;99.90;;;;;;4953041;29;20198;-27
2021/01/06 13:04:03;;;;;;;2.35;1.10;;;8.80;99.90;;;;;;4949851;29;20261;-26
2021/01/06 13:06:56;;;;;;;4.72;1.02;;;8.80;99.90;;;;;;4951636;29;20197;-29
2021/01/06 13:09:38;;;;;;;1.85;1.10;;;8.90;99.90;;;;;;4950369;29;20221;-27
2021/01/06 13:12:24;;;;;;;3.35;1.00;;;8.80;99.90;;;;;;4951541;28;21923;-28
2021/01/06 13:15:02;;;;;;;3.35;1.20;;;8.80;99.90;;;;;;4950014;29;20254;-26
2021/01/06 13:17:36;;;;;;;1.42;1.05;;;8.90;99.90;;;;;;4952088;29;20244;-26
2021/01/06 13:20:34;;;;;;;3.72;1.15;;;8.90;99.90;;;;;;4950678;29;20205;-26
2021/01/06 13:23:37;;;;;;;1.13;0.90;;;8.90;99.90;;;;;;4950709;29;20235;-28
2021/01/06 13:26:32;;;;;;;2.17;1.08;;;8.90;99.90;;;;;;4949564;29;20280;-26
2021/01/06 13:29:12;;;;;;;2.22;1.42;;;8.90;99.90;;;;;;4949653;29;20221;-27
2021/01/06 13:32:02;;;;;;;3.35;1.63;;;8.90;99.90;;;;;;4951288;29;20263;-27
2021/01/06 13:34:36;;;;;;;2.42;1.67;;;8.90;99.90;;;;;;4950440;29;20197;-25
2021/01/06 13:37:32;;;;;;;2.67;0.95;;;8.90;99.90;;;;;;4951274;29;20296;-26
2021/01/06 13:40:17;;;;;;;1.98;1.00;;;8.90;99.90;;;;;;4950736;29;20268;-26
2021/01/06 13:43:05;;;;;;;1.85;1.50;;;8.90;99.90;;;;;;4952499;29;20213;-26
2021/01/06 13:45:53;;;;;;;2.97;1.65;;;8.90;99.90;;;;;;4948917;29;20641;-25
2021/01/06 13:49:02;;;;;;;1.95;1.70;;;9.00;99.90;;;;;;4952832;29;20221;-26
2021/01/06 13:51:51;;;;;;;3.83;2.90;;;8.90;99.90;;;;;;4950974;29;20225;-26
2021/01/06 13:54:40;;;;;;;1.92;1.30;;;8.90;99.90;;;;;;4951233;29;20232;-26
2021/01/06 13:57:18;;;;;;;2.80;1.40;;;8.90;99.90;;;;;;4950875;29;20272;-26